sensor_id;sensor_type;location;lat;lon;timestamp;pressure;altitude;pressure_sealevel;temperature;humidity
40872;BME280;26591;43.264;26.940;2023-03-15T00:01:13;98104.72;;;4.75;63.08
40872;BME280;26591;43.264;26.940;2023-03-15T00:03:43;98102.47;;;4.62;63.85
40872;BME280;26591;43.264;26.940;2023-03-15T00:06:09;98096.72;;;4.58;64.35
40872;BME280;26591;43.264;26.940;2023-03-15T00:08:34;98100.56;;;4.72;64.31
40872;BME280;26591;43.264;26.940;2023-03-15T00:11:00;98094.97;;;4.49;64.78
40872;BME280;26591;43.264;26.940;2023-03-15T00:13:26;98096.41;;;4.25;65.61
40872;BME280;26591;43.264;26.940;2023-03-15T00:15:56;98089.13;;;4.19;65.70
40872;BME280;26591;43.264;26.940;2023-03-15T00:18:25;98081.63;;;3.88;66.56
40872;BME280;26591;43.264;26.940;2023-03-15T00:21:21;98076.47;;;3.96;66.74
40872;BME280;26591;43.264;26.940;2023-03-15T00:23:47;98069.91;;;3.64;68.14
40872;BME280;26591;43.264;26.940;2023-03-15T00:26:13;98065.00;;;3.79;68.00
40872;BME280;26591;43.264;26.940;2023-03-15T00:28:39;98062.50;;;3.60;68.72
40872;BME280;26591;43.264;26.940;2023-03-15T00:31:06;98063.16;;;3.62;69.01
40872;BME280;26591;43.264;26.940;2023-03-15T00:33:34;98065.16;;;3.50;69.98
40872;BME280;26591;43.264;26.940;2023-03-15T00:36:04;98062.75;;;3.29;70.87
40872;BME280;26591;43.264;26.940;2023-03-15T00:38:31;98059.94;;;3.40;70.70
40872;BME280;26591;43.264;26.940;2023-03-15T00:41:02;98051.09;;;3.51;70.15
40872;BME280;26591;43.264;26.940;2023-03-15T00:43:27;98049.41;;;3.60;70.39
40872;BME280;26591;43.264;26.940;2023-03-15T00:45:53;98045.91;;;3.69;70.29
40872;BME280;26591;43.264;26.940;2023-03-15T00:48:18;98047.25;;;3.73;69.79
40872;BME280;26591;43.264;26.940;2023-03-15T00:50:44;98037.53;;;3.65;69.72
40872;BME280;26591;43.264;26.940;2023-03-15T00:53:09;98044.25;;;3.68;70.36
40872;BME280;26591;43.264;26.940;2023-03-15T00:55:35;98035.16;;;3.72;69.89
40872;BME280;26591;43.264;26.940;2023-03-15T00:58:01;98022.66;;;3.66;70.12
40872;BME280;26591;43.264;26.940;2023-03-15T01:00:26;98018.50;;;3.17;71.34
40872;BME280;26591;43.264;26.940;2023-03-15T01:02:53;98014.28;;;3.34;71.45
40872;BME280;26591;43.264;26.940;2023-03-15T01:05:19;98007.03;;;3.56;70.87
40872;BME280;26591;43.264;26.940;2023-03-15T01:07:45;98007.38;;;3.61;70.70
40872;BME280;26591;43.264;26.940;2023-03-15T01:10:13;98004.13;;;3.59;70.23
40872;BME280;26591;43.264;26.940;2023-03-15T01:12:40;98002.53;;;3.66;70.83
40872;BME280;26591;43.264;26.940;2023-03-15T01:15:13;97997.69;;;3.72;70.40
40872;BME280;26591;43.264;26.940;2023-03-15T01:17:40;97995.03;;;3.54;70.67
40872;BME280;26591;43.264;26.940;2023-03-15T01:20:06;97993.56;;;3.23;71.97
40872;BME280;26591;43.264;26.940;2023-03-15T01:22:32;97987.56;;;3.13;71.98
40872;BME280;26591;43.264;26.940;2023-03-15T01:24:58;97988.22;;;3.43;72.11
40872;BME280;26591;43.264;26.940;2023-03-15T01:27:23;97980.28;;;3.34;71.68
40872;BME280;26591;43.264;26.940;2023-03-15T01:29:49;97980.44;;;3.33;72.19
40872;BME280;26591;43.264;26.940;2023-03-15T01:32:14;97974.66;;;3.75;70.95
40872;BME280;26591;43.264;26.940;2023-03-15T01:34:40;97979.16;;;3.83;70.81
40872;BME280;26591;43.264;26.940;2023-03-15T01:37:09;97975.56;;;3.84;70.58
40872;BME280;26591;43.264;26.940;2023-03-15T01:39:34;97969.59;;;3.92;70.06
40872;BME280;26591;43.264;26.940;2023-03-15T01:42:01;97958.63;;;3.60;70.88
40872;BME280;26591;43.264;26.940;2023-03-15T01:44:47;97949.25;;;3.67;71.13
40872;BME280;26591;43.264;26.940;2023-03-15T01:47:13;97946.56;;;3.77;70.87
40872;BME280;26591;43.264;26.940;2023-03-15T01:49:38;97946.69;;;3.94;70.46
40872;BME280;26591;43.264;26.940;2023-03-15T01:57:40;97944.56;;;4.34;68.90
40872;BME280;26591;43.264;26.940;2023-03-15T02:00:10;97952.19;;;4.27;69.04
40872;BME280;26591;43.264;26.940;2023-03-15T02:02:49;97951.09;;;4.11;69.57
40872;BME280;26591;43.264;26.940;2023-03-15T02:05:23;97947.63;;;4.29;68.94
40872;BME280;26591;43.264;26.940;2023-03-15T02:07:50;97952.44;;;4.16;69.16
40872;BME280;26591;43.264;26.940;2023-03-15T02:10:30;97951.88;;;4.30;68.88
40872;BME280;26591;43.264;26.940;2023-03-15T02:12:58;97947.28;;;4.24;68.92
40872;BME280;26591;43.264;26.940;2023-03-15T02:15:36;97947.13;;;4.07;69.15
40872;BME280;26591;43.264;26.940;2023-03-15T02:18:01;97947.97;;;3.90;69.59
40872;BME280;26591;43.264;26.940;2023-03-15T02:23:26;97946.50;;;4.13;69.08
40872;BME280;26591;43.264;26.940;2023-03-15T02:28:27;97934.06;;;4.07;69.07
40872;BME280;26591;43.264;26.940;2023-03-15T02:30:53;97939.91;;;3.83;69.59
40872;BME280;26591;43.264;26.940;2023-03-15T02:33:48;97943.31;;;3.84;69.61
40872;BME280;26591;43.264;26.940;2023-03-15T02:36:25;97937.41;;;3.63;69.98
40872;BME280;26591;43.264;26.940;2023-03-15T02:38:52;97933.38;;;3.69;70.61
40872;BME280;26591;43.264;26.940;2023-03-15T02:41:21;97923.34;;;3.82;70.53
40872;BME280;26591;43.264;26.940;2023-03-15T02:43:51;97919.56;;;3.59;70.98
40872;BME280;26591;43.264;26.940;2023-03-15T02:46:18;97926.28;;;3.79;70.42
40872;BME280;26591;43.264;26.940;2023-03-15T02:48:45;97923.44;;;3.91;70.78
40872;BME280;26591;43.264;26.940;2023-03-15T02:51:22;97925.00;;;3.84;70.42
40872;BME280;26591;43.264;26.940;2023-03-15T02:53:48;97927.34;;;3.69;70.72
40872;BME280;26591;43.264;26.940;2023-03-15T02:56:14;97926.44;;;3.78;71.05
40872;BME280;26591;43.264;26.940;2023-03-15T02:58:40;97928.81;;;3.71;70.83
40872;BME280;26591;43.264;26.940;2023-03-15T03:01:06;97934.22;;;3.88;70.89
40872;BME280;26591;43.264;26.940;2023-03-15T03:03:32;97938.00;;;3.93;70.62
40872;BME280;26591;43.264;26.940;2023-03-15T03:05:58;97937.22;;;3.93;70.77
40872;BME280;26591;43.264;26.940;2023-03-15T03:08:23;97940.88;;;3.82;71.08
40872;BME280;26591;43.264;26.940;2023-03-15T03:10:49;97939.75;;;3.66;71.67
40872;BME280;26591;43.264;26.940;2023-03-15T03:13:14;97948.25;;;3.50;72.10
40872;BME280;26591;43.264;26.940;2023-03-15T03:15:40;97946.00;;;3.56;72.05
40872;BME280;26591;43.264;26.940;2023-03-15T03:18:09;97939.94;;;3.37;72.87
40872;BME280;26591;43.264;26.940;2023-03-15T03:20:35;97950.25;;;3.39;72.69
40872;BME280;26591;43.264;26.940;2023-03-15T03:23:01;97953.59;;;3.31;73.21
40872;BME280;26591;43.264;26.940;2023-03-15T03:25:31;97955.97;;;3.24;73.29
40872;BME280;26591;43.264;26.940;2023-03-15T03:27:57;97955.47;;;3.20;73.34
40872;BME280;26591;43.264;26.940;2023-03-15T03:30:22;97946.53;;;3.13;73.95
40872;BME280;26591;43.264;26.940;2023-03-15T03:32:49;97950.41;;;3.37;73.35
40872;BME280;26591;43.264;26.940;2023-03-15T03:38:18;97956.84;;;3.61;73.03
40872;BME280;26591;43.264;26.940;2023-03-15T03:40:44;97963.69;;;3.90;71.89
40872;BME280;26591;43.264;26.940;2023-03-15T03:43:10;97958.50;;;3.80;71.44
40872;BME280;26591;43.264;26.940;2023-03-15T03:45:35;97960.09;;;3.73;71.77
40872;BME280;26591;43.264;26.940;2023-03-15T03:48:01;97965.22;;;3.82;71.93
40872;BME280;26591;43.264;26.940;2023-03-15T03:50:27;97954.09;;;3.62;71.97
40872;BME280;26591;43.264;26.940;2023-03-15T03:52:52;97955.53;;;3.75;72.15
40872;BME280;26591;43.264;26.940;2023-03-15T03:55:18;97957.69;;;3.79;72.05
40872;BME280;26591;43.264;26.940;2023-03-15T03:57:43;97951.63;;;3.79;71.69
40872;BME280;26591;43.264;26.940;2023-03-15T04:00:12;97950.50;;;3.45;72.43
40872;BME280;26591;43.264;26.940;2023-03-15T04:02:39;97955.91;;;3.62;72.47
40872;BME280;26591;43.264;26.940;2023-03-15T04:05:08;97947.44;;;3.50;72.68
40872;BME280;26591;43.264;26.940;2023-03-15T04:07:34;97950.38;;;3.65;72.79
40872;BME280;26591;43.264;26.940;2023-03-15T04:09:59;97945.09;;;3.47;73.09
40872;BME280;26591;43.264;26.940;2023-03-15T04:12:26;97944.91;;;3.58;72.47
40872;BME280;26591;43.264;26.940;2023-03-15T04:14:52;97942.41;;;3.39;72.96
40872;BME280;26591;43.264;26.940;2023-03-15T04:17:18;97935.47;;;3.29;73.51
40872;BME280;26591;43.264;26.940;2023-03-15T04:19:43;97930.69;;;3.61;73.03
40872;BME280;26591;43.264;26.940;2023-03-15T04:22:11;97926.44;;;3.60;72.85
40872;BME280;26591;43.264;26.940;2023-03-15T04:24:42;97927.47;;;3.85;72.32
40872;BME280;26591;43.264;26.940;2023-03-15T04:27:08;97927.41;;;3.95;72.17
40872;BME280;26591;43.264;26.940;2023-03-15T04:29:34;97926.94;;;4.00;71.77
40872;BME280;26591;43.264;26.940;2023-03-15T04:31:59;97930.38;;;4.00;71.63
40872;BME280;26591;43.264;26.940;2023-03-15T04:34:30;97932.47;;;4.41;71.63
40872;BME280;26591;43.264;26.940;2023-03-15T04:36:55;97943.53;;;5.22;71.11
40872;BME280;26591;43.264;26.940;2023-03-15T04:39:22;97948.06;;;5.63;69.40
40872;BME280;26591;43.264;26.940;2023-03-15T04:41:48;97946.66;;;6.10;67.03
40872;BME280;26591;43.264;26.940;2023-03-15T04:44:14;97951.00;;;6.76;65.67
40872;BME280;26591;43.264;26.940;2023-03-15T04:46:43;97953.78;;;7.62;63.63
40872;BME280;26591;43.264;26.940;2023-03-15T04:49:09;97952.66;;;8.49;60.75
40872;BME280;26591;43.264;26.940;2023-03-15T04:51:35;97957.66;;;9.34;58.70
40872;BME280;26591;43.264;26.940;2023-03-15T04:54:00;97950.00;;;9.76;55.89
40872;BME280;26591;43.264;26.940;2023-03-15T04:56:27;97940.78;;;10.59;53.58
40872;BME280;26591;43.264;26.940;2023-03-15T04:58:53;97937.59;;;10.42;51.77
40872;BME280;26591;43.264;26.940;2023-03-15T05:01:18;97930.88;;;11.09;51.61
40872;BME280;26591;43.264;26.940;2023-03-15T05:03:44;97931.22;;;10.99;50.89
40872;BME280;26591;43.264;26.940;2023-03-15T05:06:10;97936.94;;;11.03;50.69
40872;BME280;26591;43.264;26.940;2023-03-15T05:08:36;97924.25;;;10.92;52.99
40872;BME280;26591;43.264;26.940;2023-03-15T05:11:03;97928.97;;;10.61;50.11
40872;BME280;26591;43.264;26.940;2023-03-15T05:13:28;97925.41;;;9.75;51.77
40872;BME280;26591;43.264;26.940;2023-03-15T05:15:54;97924.44;;;9.40;52.76
40872;BME280;26591;43.264;26.940;2023-03-15T05:18:22;97915.66;;;9.03;54.14
40872;BME280;26591;43.264;26.940;2023-03-15T05:20:50;97921.84;;;8.80;54.06
40872;BME280;26591;43.264;26.940;2023-03-15T05:23:16;97914.41;;;9.35;54.34
40872;BME280;26591;43.264;26.940;2023-03-15T05:25:41;97912.09;;;9.25;54.14
40872;BME280;26591;43.264;26.940;2023-03-15T05:28:08;97912.38;;;9.52;54.50
40872;BME280;26591;43.264;26.940;2023-03-15T05:30:34;97913.38;;;9.95;52.59
40872;BME280;26591;43.264;26.940;2023-03-15T05:32:59;97911.00;;;10.00;52.23
40872;BME280;26591;43.264;26.940;2023-03-15T05:35:28;97906.47;;;10.72;52.04
40872;BME280;26591;43.264;26.940;2023-03-15T05:37:54;97915.34;;;11.48;52.73
40872;BME280;26591;43.264;26.940;2023-03-15T05:40:20;97905.69;;;12.09;47.81
40872;BME280;26591;43.264;26.940;2023-03-15T05:42:45;97912.78;;;12.35;47.00
40872;BME280;26591;43.264;26.940;2023-03-15T05:45:11;97906.63;;;12.75;46.05
40872;BME280;26591;43.264;26.940;2023-03-15T05:47:37;97904.53;;;12.91;46.07
40872;BME280;26591;43.264;26.940;2023-03-15T05:50:02;97912.34;;;13.38;45.01
40872;BME280;26591;43.264;26.940;2023-03-15T05:52:30;97912.34;;;12.79;44.81
40872;BME280;26591;43.264;26.940;2023-03-15T05:54:58;97912.56;;;12.64;46.07
40872;BME280;26591;43.264;26.940;2023-03-15T05:57:23;97918.09;;;12.35;46.13
40872;BME280;26591;43.264;26.940;2023-03-15T05:59:48;97916.81;;;11.84;47.39
40872;BME280;26591;43.264;26.940;2023-03-15T06:02:14;97914.94;;;11.51;47.91
40872;BME280;26591;43.264;26.940;2023-03-15T06:04:39;97906.66;;;11.88;47.79
40872;BME280;26591;43.264;26.940;2023-03-15T06:07:05;97912.94;;;11.60;47.56
40872;BME280;26591;43.264;26.940;2023-03-15T06:09:31;97919.16;;;11.32;48.50
40872;BME280;26591;43.264;26.940;2023-03-15T06:11:56;97919.38;;;11.37;48.80
40872;BME280;26591;43.264;26.940;2023-03-15T06:14:24;97916.38;;;11.05;48.86
40872;BME280;26591;43.264;26.940;2023-03-15T06:16:50;97909.81;;;9.59;50.58
40872;BME280;26591;43.264;26.940;2023-03-15T06:19:15;97901.38;;;9.70;50.67
40872;BME280;26591;43.264;26.940;2023-03-15T06:21:43;97909.44;;;9.62;50.23
40872;BME280;26591;43.264;26.940;2023-03-15T06:24:09;97905.69;;;10.21;50.29
40872;BME280;26591;43.264;26.940;2023-03-15T06:26:34;97892.28;;;10.51;49.67
40872;BME280;26591;43.264;26.940;2023-03-15T06:29:00;97905.84;;;9.91;49.45
40872;BME280;26591;43.264;26.940;2023-03-15T06:31:25;97889.16;;;9.48;51.93
40872;BME280;26591;43.264;26.940;2023-03-15T06:33:50;97895.16;;;8.90;52.21
40872;BME280;26591;43.264;26.940;2023-03-15T06:36:16;97883.06;;;8.35;53.73
40872;BME280;26591;43.264;26.940;2023-03-15T06:38:41;97880.97;;;8.91;53.27
40872;BME280;26591;43.264;26.940;2023-03-15T06:41:07;97883.09;;;8.95;51.67
40872;BME280;26591;43.264;26.940;2023-03-15T06:43:33;97883.19;;;8.87;51.93
40872;BME280;26591;43.264;26.940;2023-03-15T06:45:58;97874.06;;;9.05;51.36
40872;BME280;26591;43.264;26.940;2023-03-15T06:48:25;97867.78;;;9.06;52.29
40872;BME280;26591;43.264;26.940;2023-03-15T06:50:50;97861.22;;;9.01;51.21
40872;BME280;26591;43.264;26.940;2023-03-15T06:53:31;97847.72;;;9.48;50.22
40872;BME280;26591;43.264;26.940;2023-03-15T06:55:56;97850.59;;;9.75;49.33
40872;BME280;26591;43.264;26.940;2023-03-15T06:58:22;97849.19;;;9.14;51.56
40872;BME280;26591;43.264;26.940;2023-03-15T07:00:48;97842.19;;;9.06;52.07
40872;BME280;26591;43.264;26.940;2023-03-15T07:03:14;97840.88;;;9.75;49.84
40872;BME280;26591;43.264;26.940;2023-03-15T07:05:39;97852.44;;;9.53;49.96
40872;BME280;26591;43.264;26.940;2023-03-15T07:08:06;97852.69;;;9.58;49.55
40872;BME280;26591;43.264;26.940;2023-03-15T07:10:32;97847.16;;;9.74;53.36
40872;BME280;26591;43.264;26.940;2023-03-15T07:12:59;97848.47;;;9.64;49.72
40872;BME280;26591;43.264;26.940;2023-03-15T07:15:24;97843.94;;;9.79;50.08
40872;BME280;26591;43.264;26.940;2023-03-15T07:17:50;97840.09;;;10.38;49.23
40872;BME280;26591;43.264;26.940;2023-03-15T07:20:15;97840.97;;;10.17;46.78
40872;BME280;26591;43.264;26.940;2023-03-15T07:22:44;97831.88;;;10.27;47.91
40872;BME280;26591;43.264;26.940;2023-03-15T07:25:10;97832.94;;;9.32;47.97
40872;BME280;26591;43.264;26.940;2023-03-15T07:27:35;97837.53;;;9.67;48.21
40872;BME280;26591;43.264;26.940;2023-03-15T07:30:01;97839.16;;;9.46;48.28
40872;BME280;26591;43.264;26.940;2023-03-15T07:32:27;97842.25;;;9.13;49.49
40872;BME280;26591;43.264;26.940;2023-03-15T07:34:54;97847.94;;;9.97;47.75
40872;BME280;26591;43.264;26.940;2023-03-15T07:37:22;97846.56;;;9.79;48.65
40872;BME280;26591;43.264;26.940;2023-03-15T07:39:47;97846.94;;;9.98;48.36
40872;BME280;26591;43.264;26.940;2023-03-15T07:42:13;97834.44;;;9.85;49.39
40872;BME280;26591;43.264;26.940;2023-03-15T07:44:38;97843.09;;;10.00;49.05
40872;BME280;26591;43.264;26.940;2023-03-15T07:47:04;97854.38;;;10.16;49.06
40872;BME280;26591;43.264;26.940;2023-03-15T07:49:29;97850.03;;;9.80;48.52
40872;BME280;26591;43.264;26.940;2023-03-15T07:51:56;97845.41;;;9.88;49.45
40872;BME280;26591;43.264;26.940;2023-03-15T07:54:21;97834.94;;;9.52;48.80
40872;BME280;26591;43.264;26.940;2023-03-15T07:56:47;97838.41;;;9.52;48.91
40872;BME280;26591;43.264;26.940;2023-03-15T07:59:12;97837.41;;;10.60;48.03
40872;BME280;26591;43.264;26.940;2023-03-15T08:01:38;97829.91;;;11.26;47.10
40872;BME280;26591;43.264;26.940;2023-03-15T08:04:03;97830.13;;;11.31;46.03
40872;BME280;26591;43.264;26.940;2023-03-15T08:06:44;97821.34;;;11.24;46.86
40872;BME280;26591;43.264;26.940;2023-03-15T08:09:10;97805.88;;;11.48;46.55
40872;BME280;26591;43.264;26.940;2023-03-15T08:11:36;97795.28;;;11.54;45.85
40872;BME280;26591;43.264;26.940;2023-03-15T08:14:01;97801.81;;;11.92;43.80
40872;BME280;26591;43.264;26.940;2023-03-15T08:16:27;97789.19;;;11.87;43.04
40872;BME280;26591;43.264;26.940;2023-03-15T08:18:52;97780.63;;;11.99;43.54
40872;BME280;26591;43.264;26.940;2023-03-15T08:21:18;97788.97;;;12.16;42.91
40872;BME280;26591;43.264;26.940;2023-03-15T08:23:43;97784.22;;;12.45;41.99
40872;BME280;26591;43.264;26.940;2023-03-15T08:26:09;97773.16;;;12.55;34.35
40872;BME280;26591;43.264;26.940;2023-03-15T08:28:34;97788.66;;;13.03;32.01
40872;BME280;26591;43.264;26.940;2023-03-15T08:31:00;97775.09;;;12.79;31.31
40872;BME280;26591;43.264;26.940;2023-03-15T08:33:25;97773.94;;;13.07;30.84
40872;BME280;26591;43.264;26.940;2023-03-15T08:35:54;97778.63;;;13.05;30.75
40872;BME280;26591;43.264;26.940;2023-03-15T08:38:20;97780.41;;;13.18;30.42
40872;BME280;26591;43.264;26.940;2023-03-15T08:40:46;97774.84;;;12.88;29.82
40872;BME280;26591;43.264;26.940;2023-03-15T08:43:11;97773.34;;;12.60;29.31
40872;BME280;26591;43.264;26.940;2023-03-15T08:45:37;97776.63;;;12.55;29.54
40872;BME280;26591;43.264;26.940;2023-03-15T08:48:02;97763.34;;;12.55;30.81
40872;BME280;26591;43.264;26.940;2023-03-15T08:50:28;97783.91;;;12.66;28.19
40872;BME280;26591;43.264;26.940;2023-03-15T08:52:56;97781.19;;;12.34;29.93
40872;BME280;26591;43.264;26.940;2023-03-15T08:55:21;97768.19;;;12.72;30.88
40872;BME280;26591;43.264;26.940;2023-03-15T08:57:47;97771.53;;;12.99;29.61
40872;BME280;26591;43.264;26.940;2023-03-15T09:00:17;97775.94;;;12.73;32.58
40872;BME280;26591;43.264;26.940;2023-03-15T09:02:50;97782.47;;;12.71;36.08
40872;BME280;26591;43.264;26.940;2023-03-15T09:05:28;97768.72;;;12.35;38.47
40872;BME280;26591;43.264;26.940;2023-03-15T09:07:53;97787.34;;;12.21;38.67
40872;BME280;26591;43.264;26.940;2023-03-15T09:10:19;97762.16;;;12.44;33.01
40872;BME280;26591;43.264;26.940;2023-03-15T09:12:50;97767.25;;;12.98;29.04
40872;BME280;26591;43.264;26.940;2023-03-15T09:15:17;97763.50;;;13.12;28.52
40872;BME280;26591;43.264;26.940;2023-03-15T09:17:43;97776.09;;;13.24;30.46
40872;BME280;26591;43.264;26.940;2023-03-15T09:20:11;97774.88;;;13.20;30.84
40872;BME280;26591;43.264;26.940;2023-03-15T09:22:41;97756.75;;;13.10;27.82
40872;BME280;26591;43.264;26.940;2023-03-15T09:25:07;97765.31;;;13.12;27.64
40872;BME280;26591;43.264;26.940;2023-03-15T09:27:34;97756.41;;;13.32;29.53
40872;BME280;26591;43.264;26.940;2023-03-15T09:30:00;97751.03;;;13.38;28.75
40872;BME280;26591;43.264;26.940;2023-03-15T09:32:25;97749.81;;;13.41;29.47
40872;BME280;26591;43.264;26.940;2023-03-15T09:34:51;97758.56;;;13.16;29.69
40872;BME280;26591;43.264;26.940;2023-03-15T09:37:17;97751.47;;;13.03;28.83
40872;BME280;26591;43.264;26.940;2023-03-15T09:39:43;97752.94;;;12.99;29.91
40872;BME280;26591;43.264;26.940;2023-03-15T09:48:05;97742.16;;;13.26;30.38
40872;BME280;26591;43.264;26.940;2023-03-15T09:50:38;97748.78;;;13.10;30.45
40872;BME280;26591;43.264;26.940;2023-03-15T09:53:15;97738.03;;;12.98;30.28
40872;BME280;26591;43.264;26.940;2023-03-15T09:55:43;97746.06;;;13.23;30.00
40872;BME280;26591;43.264;26.940;2023-03-15T09:58:20;97752.78;;;13.26;29.05
40872;BME280;26591;43.264;26.940;2023-03-15T10:01:09;97751.28;;;13.62;26.21
40872;BME280;26591;43.264;26.940;2023-03-15T10:03:43;97725.44;;;13.51;23.72
40872;BME280;26591;43.264;26.940;2023-03-15T10:06:16;97739.13;;;13.22;24.29
40872;BME280;26591;43.264;26.940;2023-03-15T10:08:54;97728.25;;;13.56;23.21
40872;BME280;26591;43.264;26.940;2023-03-15T10:11:46;97714.13;;;13.55;23.34
40872;BME280;26591;43.264;26.940;2023-03-15T10:16:47;97725.00;;;13.54;23.79
40872;BME280;26591;43.264;26.940;2023-03-15T10:19:39;97737.59;;;13.33;23.69
40872;BME280;26591;43.264;26.940;2023-03-15T10:24:56;97703.84;;;13.40;23.70
40872;BME280;26591;43.264;26.940;2023-03-15T10:29:59;97695.72;;;13.79;24.23
40872;BME280;26591;43.264;26.940;2023-03-15T10:32:28;97701.19;;;13.84;24.68
40872;BME280;26591;43.264;26.940;2023-03-15T10:34:56;97712.56;;;13.48;24.48
40872;BME280;26591;43.264;26.940;2023-03-15T10:37:23;97695.13;;;13.26;24.51
40872;BME280;26591;43.264;26.940;2023-03-15T10:39:54;97697.13;;;13.82;24.58
40872;BME280;26591;43.264;26.940;2023-03-15T10:42:30;97686.28;;;14.02;24.44
40872;BME280;26591;43.264;26.940;2023-03-15T10:44:56;97686.28;;;14.39;23.42
40872;BME280;26591;43.264;26.940;2023-03-15T10:47:23;97689.13;;;14.38;23.63
40872;BME280;26591;43.264;26.940;2023-03-15T10:49:50;97691.25;;;14.17;24.13
40872;BME280;26591;43.264;26.940;2023-03-15T10:52:39;97665.00;;;14.02;25.03
40872;BME280;26591;43.264;26.940;2023-03-15T10:55:10;97670.91;;;14.23;24.77
40872;BME280;26591;43.264;26.940;2023-03-15T10:57:40;97666.19;;;14.25;24.73
40872;BME280;26591;43.264;26.940;2023-03-15T11:00:20;97659.88;;;14.19;25.15
40872;BME280;26591;43.264;26.940;2023-03-15T11:03:00;97668.47;;;14.21;25.17
40872;BME280;26591;43.264;26.940;2023-03-15T11:05:35;97665.75;;;14.09;26.09
40872;BME280;26591;43.264;26.940;2023-03-15T11:08:03;97671.06;;;14.09;25.69
40872;BME280;26591;43.264;26.940;2023-03-15T11:10:33;97650.25;;;14.37;25.68
40872;BME280;26591;43.264;26.940;2023-03-15T11:13:27;97656.94;;;14.27;25.63
40872;BME280;26591;43.264;26.940;2023-03-15T11:15:55;97655.31;;;14.26;26.51
40872;BME280;26591;43.264;26.940;2023-03-15T11:18:28;97629.19;;;14.35;26.16
40872;BME280;26591;43.264;26.940;2023-03-15T11:20:55;97635.03;;;14.74;26.57
40872;BME280;26591;43.264;26.940;2023-03-15T11:23:26;97635.81;;;14.44;27.17
40872;BME280;26591;43.264;26.940;2023-03-15T11:25:53;97636.44;;;14.89;26.80
40872;BME280;26591;43.264;26.940;2023-03-15T11:28:22;97639.22;;;14.82;26.17
40872;BME280;26591;43.264;26.940;2023-03-15T11:30:50;97627.38;;;14.47;26.68
40872;BME280;26591;43.264;26.940;2023-03-15T11:33:30;97624.97;;;14.76;26.13
40872;BME280;26591;43.264;26.940;2023-03-15T11:35:59;97630.25;;;15.19;26.69
40872;BME280;26591;43.264;26.940;2023-03-15T11:38:43;97634.06;;;15.23;25.88
40872;BME280;26591;43.264;26.940;2023-03-15T11:44:12;97642.66;;;15.25;26.92
40872;BME280;26591;43.264;26.940;2023-03-15T11:46:45;97621.56;;;15.12;26.85
40872;BME280;26591;43.264;26.940;2023-03-15T11:49:35;97630.69;;;15.16;27.97
40872;BME280;26591;43.264;26.940;2023-03-15T11:52:03;97626.06;;;15.59;29.09
40872;BME280;26591;43.264;26.940;2023-03-15T11:54:30;97624.22;;;15.35;28.54
40872;BME280;26591;43.264;26.940;2023-03-15T11:57:04;97614.81;;;15.45;28.74
40872;BME280;26591;43.264;26.940;2023-03-15T11:59:36;97607.66;;;15.57;28.87
40872;BME280;26591;43.264;26.940;2023-03-15T12:18:03;97609.81;;;14.77;30.89
40872;BME280;26591;43.264;26.940;2023-03-15T12:20:38;97605.03;;;14.79;30.78
40872;BME280;26591;43.264;26.940;2023-03-15T12:23:15;97607.53;;;14.62;30.72
40872;BME280;26591;43.264;26.940;2023-03-15T12:28:34;97610.63;;;14.59;31.40
40872;BME280;26591;43.264;26.940;2023-03-15T12:31:03;97615.25;;;14.70;30.83
40872;BME280;26591;43.264;26.940;2023-03-15T12:33:31;97614.00;;;14.54;30.71
40872;BME280;26591;43.264;26.940;2023-03-15T12:36:06;97627.66;;;14.58;31.15
40872;BME280;26591;43.264;26.940;2023-03-15T12:38:38;97620.34;;;14.53;30.45
40872;BME280;26591;43.264;26.940;2023-03-15T12:41:33;97637.53;;;14.39;30.64
40872;BME280;26591;43.264;26.940;2023-03-15T12:49:34;97620.19;;;14.36;31.85
40872;BME280;26591;43.264;26.940;2023-03-15T12:52:02;97625.28;;;14.19;31.81
40872;BME280;26591;43.264;26.940;2023-03-15T12:54:39;97629.16;;;14.04;31.89
40872;BME280;26591;43.264;26.940;2023-03-15T12:57:11;97629.72;;;14.25;31.14
40872;BME280;26591;43.264;26.940;2023-03-15T12:59:58;97623.03;;;14.23;31.23
40872;BME280;26591;43.264;26.940;2023-03-15T13:02:34;97622.16;;;14.41;31.62
40872;BME280;26591;43.264;26.940;2023-03-15T13:05:27;97624.06;;;14.83;32.96
40872;BME280;26591;43.264;26.940;2023-03-15T13:08:19;97623.06;;;15.07;31.72
40872;BME280;26591;43.264;26.940;2023-03-15T13:24:22;97616.44;;;15.93;31.82
40872;BME280;26591;43.264;26.940;2023-03-15T13:26:59;97617.16;;;15.65;31.98
40872;BME280;26591;43.264;26.940;2023-03-15T13:29:30;97623.31;;;15.41;32.09
40872;BME280;26591;43.264;26.940;2023-03-15T13:32:07;97616.78;;;15.61;32.10
40872;BME280;26591;43.264;26.940;2023-03-15T13:34:36;97613.91;;;15.39;32.36
40872;BME280;26591;43.264;26.940;2023-03-15T13:37:01;97611.38;;;15.56;32.93
40872;BME280;26591;43.264;26.940;2023-03-15T13:39:32;97608.13;;;15.54;33.52
40872;BME280;26591;43.264;26.940;2023-03-15T13:42:19;97600.47;;;15.57;32.58
40872;BME280;26591;43.264;26.940;2023-03-15T13:44:45;97605.13;;;15.38;33.28
40872;BME280;26591;43.264;26.940;2023-03-15T13:47:19;97607.91;;;15.32;33.58
40872;BME280;26591;43.264;26.940;2023-03-15T13:49:52;97604.75;;;14.99;34.00
40872;BME280;26591;43.264;26.940;2023-03-15T13:52:18;97609.63;;;15.50;34.40
40872;BME280;26591;43.264;26.940;2023-03-15T13:54:44;97620.03;;;15.16;34.08
40872;BME280;26591;43.264;26.940;2023-03-15T13:57:15;97604.75;;;14.99;34.96
40872;BME280;26591;43.264;26.940;2023-03-15T14:00:04;97610.88;;;15.00;35.31
40872;BME280;26591;43.264;26.940;2023-03-15T14:02:53;97605.91;;;15.03;34.75
40872;BME280;26591;43.264;26.940;2023-03-15T14:05:26;97606.50;;;15.41;34.87
40872;BME280;26591;43.264;26.940;2023-03-15T14:08:05;97606.84;;;15.21;34.84
40872;BME280;26591;43.264;26.940;2023-03-15T14:10:34;97607.53;;;15.16;35.38
40872;BME280;26591;43.264;26.940;2023-03-15T14:15:45;97603.59;;;14.95;35.07